Time;durP1;ratioP1;P1;durP2;ratioP2;P2;SDS_P1;SDS_P2;PMS_P1;PMS_P2;Temp;Humidity;BMP_temperature;BMP_pressure;BME280_temperature;BME280_humidity;BME280_pressure;Samples;Min_cycle;Max_cycle;Signal;HPM_P1;HPM_P2
2022/11/14 00:00:35;;;;;;;11.38;6.22;;;;;;;9.18;100.00;100105.34;4991333;28;20034;-62
2022/11/14 00:03:02;;;;;;;12.25;7.20;;;;;;;9.29;100.00;100115.69;4995203;28;20446;-63
2022/11/14 00:05:28;;;;;;;11.98;7.60;;;;;;;9.32;100.00;100112.94;4991314;28;20036;-62
2022/11/14 00:07:53;;;;;;;11.85;7.10;;;;;;;9.19;100.00;100099.09;4994064;28;20085;-63
2022/11/14 00:10:20;;;;;;;15.52;8.38;;;;;;;9.13;100.00;100095.75;5008478;28;20509;-62
2022/11/14 00:12:45;;;;;;;15.77;7.70;;;;;;;9.19;100.00;100093.81;5009685;28;20024;-63
2022/11/14 00:15:12;;;;;;;15.23;8.07;;;;;;;9.27;100.00;100106.88;5003071;28;20022;-62
2022/11/14 00:17:37;;;;;;;13.82;7.80;;;;;;;9.30;100.00;100098.84;4992189;28;20426;-62
2022/11/14 00:20:05;;;;;;;16.42;8.13;;;;;;;9.25;100.00;100100.75;4991133;28;20031;-62
2022/11/14 00:22:31;;;;;;;14.10;7.40;;;;;;;9.22;100.00;100093.72;4991417;28;20050;-62
2022/11/14 00:24:56;;;;;;;15.73;7.75;;;;;;;9.20;100.00;100092.03;4991275;28;20064;-63
2022/11/14 00:27:22;;;;;;;16.73;8.48;;;;;;;9.22;100.00;100090.22;4991482;28;20101;-63
2022/11/14 00:29:47;;;;;;;14.43;8.15;;;;;;;9.15;100.00;100085.97;4991504;28;20026;-62
2022/11/14 00:32:13;;;;;;;13.68;7.47;;;;;;;9.18;100.00;100089.41;4991205;28;20030;-62
2022/11/14 00:34:38;;;;;;;13.50;7.50;;;;;;;9.20;100.00;100089.38;4990897;28;20018;-63
2022/11/14 00:37:04;;;;;;;11.35;6.45;;;;;;;9.18;100.00;100089.41;4991019;28;20077;-63
2022/11/14 00:39:29;;;;;;;12.88;6.78;;;;;;;9.13;100.00;100085.13;4991062;28;20061;-62
2022/11/14 00:41:54;;;;;;;12.38;6.65;;;;;;;9.14;100.00;100089.53;4991194;28;20757;-62
2022/11/14 00:44:20;;;;;;;11.93;7.32;;;;;;;9.13;100.00;100086.00;4991120;28;20026;-62
2022/11/14 00:46:45;;;;;;;12.13;6.72;;;;;;;9.11;100.00;100076.31;4991094;28;20093;-63
2022/11/14 00:49:10;;;;;;;10.85;6.28;;;;;;;9.03;100.00;100078.31;4991187;28;20061;-62
2022/11/14 00:51:36;;;;;;;12.95;6.50;;;;;;;9.07;100.00;100077.34;4991013;28;20106;-63
2022/11/14 00:54:02;;;;;;;11.27;6.50;;;;;;;9.05;100.00;100068.53;4993209;28;20030;-63
2022/11/14 00:56:28;;;;;;;12.15;6.20;;;;;;;9.03;100.00;100076.53;4994547;28;20022;-63
2022/11/14 00:58:53;;;;;;;12.13;6.57;;;;;;;9.03;100.00;100078.31;4994287;28;20034;-63
2022/11/14 01:01:19;;;;;;;11.73;5.95;;;;;;;8.97;100.00;100076.69;4993837;28;20476;-63
2022/11/14 01:03:49;;;;;;;15.38;8.88;;;;;;;9.00;100.00;100075.75;4993629;28;20383;-62
2022/11/14 01:06:15;;;;;;;12.32;7.00;;;;;;;9.01;100.00;100072.19;4993570;28;20034;-63
2022/11/14 01:08:41;;;;;;;12.95;6.28;;;;;;;8.99;100.00;100076.66;4993861;28;20022;-63
2022/11/14 01:11:10;;;;;;;12.80;6.65;;;;;;;9.04;100.00;100072.13;4993321;28;20089;-63
2022/11/14 01:13:36;;;;;;;14.15;7.50;;;;;;;9.06;100.00;100075.59;4993818;28;20825;-62
2022/11/14 01:16:02;;;;;;;15.27;7.45;;;;;;;8.94;100.00;100081.22;4994152;28;20042;-63
2022/11/14 01:18:27;;;;;;;11.43;6.28;;;;;;;8.85;100.00;100081.41;4994206;28;20030;-63
2022/11/14 01:20:53;;;;;;;12.05;6.93;;;;;;;8.79;100.00;100084.22;4994236;28;20076;-62
2022/11/14 01:23:18;;;;;;;12.52;6.90;;;;;;;8.79;100.00;100086.88;4994090;28;20023;-62
2022/11/14 01:25:44;;;;;;;15.38;7.20;;;;;;;8.83;100.00;100080.63;4993965;28;20080;-62
2022/11/14 01:28:15;;;;;;;14.20;7.63;;;;;;;8.75;100.00;100064.88;4994005;28;20074;-63
2022/11/14 01:30:41;;;;;;;13.98;7.75;;;;;;;8.83;100.00;100075.31;4994036;28;20038;-62
2022/11/14 01:33:07;;;;;;;15.77;7.63;;;;;;;8.83;100.00;100068.19;4993895;28;20034;-62
2022/11/14 01:35:34;;;;;;;13.82;8.25;;;;;;;8.95;100.00;100057.28;4993731;28;20105;-62
2022/11/14 01:38:00;;;;;;;15.25;7.93;;;;;;;9.01;100.00;100045.66;4993878;28;20076;-62
2022/11/14 01:40:26;;;;;;;17.45;8.93;;;;;;;9.00;100.00;100042.13;4993784;28;20465;-62
2022/11/14 01:43:17;;;;;;;15.63;7.70;;;;;;;9.03;100.00;100044.69;4993775;28;20394;-62
2022/11/14 01:45:46;;;;;;;15.15;9.48;;;;;;;9.09;100.00;100038.38;4993884;28;20385;-62
2022/11/14 01:48:50;;;;;;;12.82;7.43;;;;;;;9.10;100.00;100040.09;4993843;28;20034;-62
2022/11/14 01:51:37;;;;;;;16.83;8.75;;;;;;;9.08;100.00;100032.19;4958379;28;20525;-62
2022/11/14 01:54:12;;;;;;;15.02;7.53;;;;;;;9.11;100.00;100020.59;4974296;28;20034;-62
2022/11/14 01:56:45;;;;;;;14.70;8.32;;;;;;;8.99;100.00;100031.56;4974202;28;20031;-62
2022/11/14 01:59:17;;;;;;;13.05;7.38;;;;;;;8.95;100.00;100020.16;4973926;28;20117;-62
2022/11/14 02:01:50;;;;;;;12.25;7.50;;;;;;;8.97;100.00;100022.78;4998381;28;20061;-68
2022/11/14 02:04:29;;;;;;;14.90;8.07;;;;;;;8.95;100.00;100017.50;5000492;28;20030;-68
2022/11/14 02:06:59;;;;;;;13.88;7.85;;;;;;;8.91;100.00;100010.53;5000529;28;20386;-69
2022/11/14 02:09:27;;;;;;;16.08;7.68;;;;;;;8.80;100.00;100004.63;4999350;28;20026;-68
2022/11/14 02:11:55;;;;;;;13.10;7.95;;;;;;;8.74;100.00;99998.63;4981333;28;20055;-69
2022/11/14 02:14:21;;;;;;;12.15;7.15;;;;;;;8.77;100.00;100001.19;4981895;28;20023;-69
2022/11/14 02:16:47;;;;;;;17.50;8.32;;;;;;;8.82;100.00;99999.28;4983249;28;20030;-68
2022/11/14 02:19:14;;;;;;;14.63;8.02;;;;;;;8.81;100.00;99990.44;4984507;28;20140;-68
2022/11/14 02:21:39;;;;;;;15.05;8.73;;;;;;;8.88;100.00;99997.34;4982966;28;20026;-69
2022/11/14 02:24:09;;;;;;;16.08;8.98;;;;;;;8.81;100.00;99985.16;4980917;28;20034;-69
2022/11/14 02:26:35;;;;;;;16.38;8.40;;;;;;;8.87;100.00;99989.44;4981654;28;20081;-69
2022/11/14 02:29:01;;;;;;;14.98;7.93;;;;;;;8.84;100.00;99978.91;4982545;28;20022;-69
2022/11/14 02:31:27;;;;;;;15.57;7.97;;;;;;;8.81;100.00;99979.00;4984365;28;20400;-69
2022/11/14 02:33:52;;;;;;;14.98;8.48;;;;;;;8.75;100.00;99979.13;4979632;28;20041;-69
2022/11/14 02:36:17;;;;;;;17.13;8.70;;;;;;;8.68;100.00;99982.88;4984299;28;20023;-66
2022/11/14 02:38:43;;;;;;;14.90;8.43;;;;;;;8.69;100.00;99979.31;4985765;28;20042;-69
2022/11/14 02:41:08;;;;;;;16.45;8.18;;;;;;;8.66;100.00;99979.38;4985799;28;20064;-68
2022/11/14 02:43:34;;;;;;;15.57;8.27;;;;;;;8.62;100.00;99977.72;4987476;28;20028;-68
2022/11/14 02:45:59;;;;;;;14.43;9.45;;;;;;;8.66;100.00;99979.38;4987045;28;20039;-68
2022/11/14 02:48:24;;;;;;;12.40;7.43;;;;;;;8.63;100.00;99974.16;4986731;28;20027;-68
2022/11/14 02:50:50;;;;;;;16.60;8.43;;;;;;;8.56;100.00;99976.09;4985621;28;20450;-69
2022/11/14 02:53:15;;;;;;;19.60;10.02;;;;;;;8.51;100.00;99974.47;4984999;28;20046;-68
2022/11/14 02:55:41;;;;;;;20.00;9.45;;;;;;;8.40;100.00;99950.88;4985515;28;20023;-68
2022/11/14 02:58:06;;;;;;;16.33;8.82;;;;;;;8.54;100.00;99961.13;4982942;28;20027;-69
2022/11/14 03:00:32;;;;;;;17.10;8.63;;;;;;;8.58;100.00;99960.16;4986199;28;20109;-69
2022/11/14 03:02:58;;;;;;;19.00;9.93;;;;;;;8.56;100.00;99962.84;4986106;28;20054;-69
2022/11/14 03:05:23;;;;;;;18.77;9.57;;;;;;;8.64;100.00;99954.69;4987500;28;20044;-69
2022/11/14 03:07:53;;;;;;;19.15;9.20;;;;;;;8.60;100.00;99958.34;4987561;28;20019;-69
2022/11/14 03:10:19;;;;;;;24.38;9.82;;;;;;;8.55;100.00;99960.25;4993308;28;20058;-69
2022/11/14 03:12:44;;;;;;;21.52;10.00;;;;;;;8.55;100.00;99949.63;5004603;28;20037;-69
2022/11/14 03:15:10;;;;;;;22.77;9.70;;;;;;;8.48;100.00;99951.56;5004058;28;20113;-69
2022/11/14 03:17:35;;;;;;;16.52;8.48;;;;;;;8.40;100.00;99952.66;5005518;28;20030;-68
2022/11/14 03:20:01;;;;;;;18.67;8.73;;;;;;;8.43;100.00;99947.28;5003215;28;20030;-69
2022/11/14 03:22:26;;;;;;;18.73;9.68;;;;;;;8.50;100.00;99956.84;5001749;28;20110;-69
2022/11/14 03:24:52;;;;;;;18.65;8.48;;;;;;;8.50;100.00;99957.69;5002931;28;20230;-69
2022/11/14 03:27:18;;;;;;;17.77;8.30;;;;;;;8.42;100.00;99954.34;5002983;28;20026;-69
2022/11/14 03:29:43;;;;;;;19.02;8.98;;;;;;;8.44;100.00;99957.84;5002491;28;20493;-69
2022/11/14 03:32:09;;;;;;;13.90;7.55;;;;;;;8.40;100.00;99955.31;4999873;28;20120;-69
2022/11/14 03:34:34;;;;;;;18.70;8.55;;;;;;;8.38;100.00;99957.13;5000544;28;20030;-69
2022/11/14 03:37:00;;;;;;;19.75;9.07;;;;;;;8.36;100.00;99951.88;5001297;28;20088;-66
2022/11/14 03:39:26;;;;;;;18.48;8.82;;;;;;;8.32;100.00;99952.00;5000988;28;20065;-68
2022/11/14 03:41:51;;;;;;;19.50;9.25;;;;;;;8.34;100.00;99952.78;4999984;28;20500;-69
2022/11/14 03:44:17;;;;;;;20.25;9.30;;;;;;;8.39;100.00;99956.19;4998317;28;20030;-69
2022/11/14 03:46:42;;;;;;;17.77;9.50;;;;;;;8.40;100.00;99957.97;5001945;28;20034;-69
2022/11/14 03:49:08;;;;;;;21.83;9.27;;;;;;;8.45;100.00;99964.88;5001299;28;20106;-69
2022/11/14 03:51:33;;;;;;;18.88;8.77;;;;;;;8.41;100.00;99962.34;4998373;28;20050;-69
2022/11/14 03:53:59;;;;;;;28.17;10.30;;;;;;;8.42;100.00;99961.47;4995461;28;20030;-68
2022/11/14 03:56:24;;;;;;;20.67;9.00;;;;;;;8.46;100.00;99955.16;4998769;28;20378;-69
2022/11/14 03:58:50;;;;;;;22.08;9.60;;;;;;;8.46;100.00;99955.16;5011469;28;20026;-69
2022/11/14 04:01:15;;;;;;;18.55;9.52;;;;;;;8.54;100.00;99953.19;5010672;28;20029;-68
2022/11/14 04:03:40;;;;;;;16.92;9.52;;;;;;;8.59;100.00;99956.59;5003382;28;20034;-70
2022/11/14 04:06:06;;;;;;;20.38;9.02;;;;;;;8.64;100.00;99965.28;4992785;28;20026;-69
2022/11/14 04:08:31;;;;;;;20.25;9.40;;;;;;;8.66;100.00;99952.88;4994153;28;20034;-69
2022/11/14 04:10:57;;;;;;;19.23;9.10;;;;;;;8.61;100.00;99950.34;4998650;28;20110;-69
2022/11/14 04:13:22;;;;;;;22.38;10.15;;;;;;;8.60;100.00;99943.28;5000147;28;20073;-69
2022/11/14 04:15:54;;;;;;;16.65;9.05;;;;;;;8.57;100.00;99937.19;5009284;28;20521;-69
2022/11/14 04:18:20;;;;;;;18.95;9.55;;;;;;;8.56;100.00;99925.72;5012560;28;20106;-69
2022/11/14 04:20:45;;;;;;;17.08;8.55;;;;;;;8.54;100.00;99932.84;5017364;28;20160;-69
2022/11/14 04:23:11;;;;;;;18.60;9.20;;;;;;;8.59;100.00;99924.78;5017397;28;20144;-69
2022/11/14 04:25:36;;;;;;;16.73;7.55;;;;;;;8.60;100.00;99923.88;5017480;28;20022;-69
2022/11/14 04:28:01;;;;;;;17.42;9.05;;;;;;;8.54;100.00;99927.53;5012407;28;20036;-69
2022/11/14 04:30:27;;;;;;;18.67;9.77;;;;;;;8.55;100.00;99923.97;5015177;28;20077;-69
2022/11/14 04:32:52;;;;;;;16.02;8.20;;;;;;;8.56;100.00;99924.84;4998960;28;20394;-69
2022/11/14 04:35:18;;;;;;;17.60;9.25;;;;;;;8.56;100.00;99920.44;5000038;28;20053;-69
2022/11/14 04:37:43;;;;;;;16.52;9.25;;;;;;;8.55;100.00;99917.81;5002916;28;20049;-69
2022/11/14 04:40:09;;;;;;;16.38;8.50;;;;;;;8.50;100.00;99925.03;5018557;28;20113;-69
2022/11/14 04:42:34;;;;;;;17.77;9.05;;;;;;;8.53;100.00;99917.88;5000069;28;20049;-70
2022/11/14 04:44:59;;;;;;;18.45;8.85;;;;;;;8.57;100.00;99932.75;5001159;28;20030;-69
2022/11/14 04:47:25;;;;;;;17.05;8.98;;;;;;;8.56;100.00;99927.50;4999822;28;20448;-69
2022/11/14 04:49:50;;;;;;;18.67;8.45;;;;;;;8.57;100.00;99935.41;5008456;28;20064;-69
2022/11/14 04:52:16;;;;;;;17.92;8.95;;;;;;;8.55;100.00;99936.38;5007888;28;20120;-69
2022/11/14 04:54:41;;;;;;;19.13;9.27;;;;;;;8.56;100.00;99923.09;5006929;28;20098;-69
2022/11/14 04:57:06;;;;;;;23.30;10.88;;;;;;;8.62;100.00;99914.06;5006929;28;20027;-69
2022/11/14 04:59:32;;;;;;;36.70;10.10;;;;;;;8.65;100.00;99900.78;5006546;28;20088;-69
2022/11/14 05:01:57;;;;;;;19.30;8.57;;;;;;;8.59;100.00;99898.25;5002502;28;20034;-69
2022/11/14 05:04:23;;;;;;;20.58;8.88;;;;;;;8.55;100.00;99896.63;5001173;28;20026;-70
2022/11/14 05:06:48;;;;;;;23.80;9.50;;;;;;;8.56;100.00;99898.34;5002102;28;20052;-69
2022/11/14 05:09:13;;;;;;;22.63;10.60;;;;;;;8.56;100.00;99908.94;4999897;28;20089;-69
2022/11/14 05:11:39;;;;;;;20.15;9.95;;;;;;;8.52;100.00;99912.56;4998981;28;20055;-69
2022/11/14 05:14:04;;;;;;;21.10;8.35;;;;;;;8.51;100.00;99900.25;5004425;28;20036;-69
2022/11/14 05:16:30;;;;;;;15.95;7.30;;;;;;;8.57;100.00;99892.13;5001920;28;20537;-69
2022/11/14 05:18:55;;;;;;;16.52;7.82;;;;;;;8.61;100.00;99891.16;5005676;28;20030;-69
2022/11/14 05:21:20;;;;;;;15.27;6.80;;;;;;;8.57;100.00;99894.78;5004944;28;20488;-69
2022/11/14 05:23:46;;;;;;;13.73;6.90;;;;;;;8.58;100.00;99885.94;5001499;28;20026;-69
2022/11/14 05:26:15;;;;;;;21.33;7.88;;;;;;;8.59;100.00;99892.97;4997009;28;20026;-69
2022/11/14 05:28:40;;;;;;;13.65;6.50;;;;;;;8.59;100.00;99895.59;4995078;28;20631;-70
2022/11/14 05:31:08;;;;;;;11.60;6.40;;;;;;;8.55;100.00;99886.00;4995447;28;20029;-70
2022/11/14 05:33:34;;;;;;;12.60;7.05;;;;;;;8.54;100.00;99887.78;4995464;28;20042;-70
2022/11/14 05:36:04;;;;;;;13.38;6.55;;;;;;;8.54;100.00;99889.56;4995702;28;20362;-69
2022/11/14 05:38:30;;;;;;;13.25;6.35;;;;;;;8.49;100.00;99895.00;4995339;28;20027;-70
2022/11/14 05:40:55;;;;;;;14.50;6.97;;;;;;;8.51;100.00;99894.94;4996652;28;20088;-69
2022/11/14 05:43:20;;;;;;;11.27;6.10;;;;;;;8.41;100.00;99878.41;4997778;28;20082;-69
2022/11/14 05:45:46;;;;;;;10.45;5.50;;;;;;;8.43;100.00;99875.72;5000181;28;20037;-69
2022/11/14 05:48:11;;;;;;;14.45;6.70;;;;;;;8.43;100.00;99865.13;4997035;28;20053;-69
2022/11/14 05:50:37;;;;;;;12.75;6.75;;;;;;;8.46;100.00;99867.69;4999969;28;20061;-70
2022/11/14 05:53:02;;;;;;;10.80;5.80;;;;;;;8.44;100.00;99862.44;5000150;28;20030;-69
2022/11/14 05:55:28;;;;;;;12.07;6.18;;;;;;;8.36;100.00;99858.25;5005046;28;20133;-70
2022/11/14 05:57:57;;;;;;;14.57;7.32;;;;;;;8.37;100.00;99866.16;5004422;28;20089;-70
2022/11/14 06:00:23;;;;;;;17.63;7.68;;;;;;;8.29;100.00;99857.53;5006137;28;20056;-70
2022/11/14 06:02:54;;;;;;;15.63;6.35;;;;;;;8.38;100.00;99872.31;5016455;28;20053;-69
2022/11/14 06:05:21;;;;;;;16.67;7.90;;;;;;;8.38;100.00;99869.69;5002895;28;20022;-69
2022/11/14 06:07:46;;;;;;;20.13;8.30;;;;;;;8.37;100.00;99867.94;5000861;28;20348;-69
2022/11/14 06:10:12;;;;;;;20.77;8.02;;;;;;;8.37;100.00;99879.41;5000101;28;20060;-68
2022/11/14 06:12:38;;;;;;;22.65;8.30;;;;;;;8.39;100.00;99866.09;4996245;28;20552;-70
2022/11/14 06:15:04;;;;;;;16.92;8.00;;;;;;;8.20;100.00;99848.91;4997339;28;20039;-70
2022/11/14 06:17:29;;;;;;;20.80;8.30;;;;;;;8.29;100.00;99856.66;4999870;28;20546;-70
2022/11/14 06:19:54;;;;;;;19.63;8.55;;;;;;;8.31;100.00;99854.84;4999396;28;20026;-70
2022/11/14 06:22:20;;;;;;;19.70;8.75;;;;;;;8.31;100.00;99849.53;5012290;28;20045;-68
2022/11/14 06:24:45;;;;;;;17.25;8.00;;;;;;;8.33;100.00;99848.59;5017320;28;20026;-68
2022/11/14 06:27:11;;;;;;;18.70;8.55;;;;;;;8.32;100.00;99846.00;5020431;28;20036;-67
2022/11/14 06:29:36;;;;;;;21.80;8.95;;;;;;;8.34;100.00;99852.09;5019961;28;20177;-68
2022/11/14 06:32:02;;;;;;;19.38;8.27;;;;;;;8.33;100.00;99853.91;5019800;28;20030;-69
2022/11/14 06:34:27;;;;;;;17.73;8.07;;;;;;;8.31;100.00;99854.84;5019073;28;20030;-69
2022/11/14 06:36:52;;;;;;;15.90;7.72;;;;;;;8.35;100.00;99853.84;5016352;28;20032;-69
2022/11/14 06:39:18;;;;;;;16.33;7.68;;;;;;;8.30;100.00;99859.28;5019082;28;20084;-70
2022/11/14 06:41:43;;;;;;;14.18;7.38;;;;;;;8.11;100.00;99820.88;5017970;28;20061;-68
2022/11/14 06:44:09;;;;;;;17.38;7.65;;;;;;;8.30;100.00;99861.06;5013404;28;20026;-69
2022/11/14 06:46:34;;;;;;;17.30;7.55;;;;;;;8.28;100.00;99857.56;4998105;28;20054;-69
2022/11/14 06:48:59;;;;;;;13.60;6.68;;;;;;;8.27;100.00;99858.50;4998623;28;20026;-69
2022/11/14 06:51:25;;;;;;;14.43;6.82;;;;;;;8.20;100.00;99865.69;4997647;28;20097;-69
2022/11/14 06:53:50;;;;;;;14.13;6.55;;;;;;;8.21;100.00;99864.78;4997399;28;20096;-68
2022/11/14 06:56:17;;;;;;;17.85;7.97;;;;;;;8.27;100.00;99863.78;4996331;28;20235;-68
2022/11/14 06:58:44;;;;;;;18.50;8.27;;;;;;;8.28;100.00;99865.53;4998183;28;20086;-69
2022/11/14 07:01:18;;;;;;;19.38;8.23;;;;;;;8.19;100.00;99866.59;4999875;28;20100;-68
2022/11/14 07:03:44;;;;;;;;;;;;;;;8.19;100.00;99871.88;4998410;28;20030;-68
2022/11/14 07:06:12;;;;;;;20.85;9.27;;;;;;;8.22;100.00;99876.25;4997636;28;19913;-68
2022/11/14 07:08:37;;;;;;;19.15;7.78;;;;;;;8.23;100.00;99875.31;4998125;28;20038;-70
2022/11/14 07:11:08;;;;;;;22.10;8.70;;;;;;;8.24;100.00;99874.47;4996739;28;20056;-67
2022/11/14 07:13:34;;;;;;;19.23;8.18;;;;;;;8.24;100.00;99877.97;4996312;28;20036;-68
2022/11/14 07:16:00;;;;;;;23.58;10.10;;;;;;;8.19;100.00;99869.22;4996091;28;20030;-68
2022/11/14 07:18:25;;;;;;;20.48;8.50;;;;;;;8.23;100.00;99883.28;4996353;28;20030;-68
2022/11/14 07:21:03;;;;;;;17.20;8.35;;;;;;;8.29;100.00;99884.03;4996737;28;20037;-69
2022/11/14 07:23:30;;;;;;;17.98;7.47;;;;;;;8.24;100.00;99901.81;4987334;28;20048;-68
2022/11/14 07:26:03;;;;;;;16.75;8.13;;;;;;;8.24;100.00;99893.03;4996254;28;20088;-67
2022/11/14 07:28:30;;;;;;;17.25;8.65;;;;;;;8.26;100.00;99893.81;4996469;28;20033;-68
2022/11/14 07:30:56;;;;;;;18.70;7.90;;;;;;;8.28;100.00;99898.19;4996252;28;20034;-69
2022/11/14 07:33:21;;;;;;;26.08;9.27;;;;;;;8.28;100.00;99889.38;4995299;28;20026;-70
2022/11/14 07:35:46;;;;;;;20.45;8.55;;;;;;;8.40;100.00;99897.00;4996062;28;20026;-69
2022/11/14 07:38:12;;;;;;;18.92;9.05;;;;;;;8.47;100.00;99906.53;5008660;28;20494;-70
2022/11/14 07:40:37;;;;;;;18.52;7.95;;;;;;;8.37;100.00;99897.09;4993114;28;20061;-70
2022/11/14 07:43:03;;;;;;;17.33;8.30;;;;;;;8.30;100.00;99893.72;4994777;28;20109;-70
2022/11/14 07:45:29;;;;;;;20.73;8.35;;;;;;;8.25;100.00;99892.09;4994618;28;20030;-70
2022/11/14 07:47:59;;;;;;;20.20;9.30;;;;;;;8.34;100.00;99898.03;4995331;28;20034;-70
2022/11/14 07:50:26;;;;;;;17.92;8.15;;;;;;;8.48;100.00;99918.88;4990662;28;20121;-70
2022/11/14 07:52:56;;;;;;;16.15;7.78;;;;;;;8.52;100.00;99923.19;4995386;28;20041;-69
2022/11/14 07:55:22;;;;;;;16.75;9.88;;;;;;;8.59;100.00;99925.66;4994312;28;20386;-70
2022/11/14 07:57:51;;;;;;;21.25;9.57;;;;;;;8.62;100.00;99919.38;4993198;28;20034;-70
2022/11/14 08:00:16;;;;;;;21.33;9.20;;;;;;;8.66;100.00;99915.75;4992833;28;20140;-70
2022/11/14 08:02:42;;;;;;;16.73;9.25;;;;;;;8.76;100.00;99912.81;4993334;28;20529;-69
2022/11/14 08:05:08;;;;;;;16.17;8.45;;;;;;;8.84;100.00;99920.56;4994734;28;20045;-70
2022/11/14 08:07:33;;;;;;;20.08;8.60;;;;;;;8.83;100.00;99913.53;4995332;28;20030;-70
2022/11/14 08:09:58;;;;;;;15.95;7.93;;;;;;;8.93;100.00;99915.00;4992691;28;20118;-70
2022/11/14 08:12:24;;;;;;;17.48;8.05;;;;;;;9.01;100.00;99905.06;4997134;28;20049;-69
2022/11/14 08:14:49;;;;;;;14.40;7.55;;;;;;;9.14;100.00;99901.16;5001278;28;20030;-70
2022/11/14 08:17:14;;;;;;;14.13;6.50;;;;;;;9.30;100.00;99884.75;4992959;28;20030;-70
2022/11/14 08:19:40;;;;;;;18.33;7.88;;;;;;;9.45;100.00;99890.50;4993559;28;20037;-70
2022/11/14 08:22:06;;;;;;;17.33;7.63;;;;;;;9.32;100.00;99882.03;4996102;28;20538;-69
2022/11/14 08:24:31;;;;;;;17.67;7.53;;;;;;;9.32;100.00;99898.81;4996551;28;20136;-70
2022/11/14 08:26:57;;;;;;;15.68;7.45;;;;;;;9.02;100.00;99905.03;4995885;28;20029;-70
2022/11/14 08:29:22;;;;;;;14.88;7.32;;;;;;;8.93;100.00;99909.69;4995521;28;20026;-70
2022/11/14 08:31:48;;;;;;;14.73;7.13;;;;;;;8.89;100.00;99906.28;4997188;28;20022;-68
2022/11/14 08:34:13;;;;;;;11.18;6.18;;;;;;;8.84;100.00;99915.25;4994226;28;20033;-70
2022/11/14 08:36:39;;;;;;;17.48;7.60;;;;;;;8.92;100.00;99907.97;4990646;28;20076;-70
2022/11/14 08:39:04;;;;;;;14.93;6.53;;;;;;;9.01;100.00;99918.34;4994405;28;20160;-70
2022/11/14 08:41:30;;;;;;;13.05;6.60;;;;;;;9.14;100.00;99898.50;4994503;28;20026;-70
2022/11/14 08:43:55;;;;;;;11.50;6.32;;;;;;;9.17;100.00;99898.41;4992547;28;20044;-70
2022/11/14 08:46:21;;;;;;;12.38;6.53;;;;;;;9.26;100.00;99895.47;4994692;28;20069;-70
2022/11/14 08:48:46;;;;;;;10.70;5.90;;;;;;;9.25;100.00;99885.78;4994564;28;20022;-70
2022/11/14 08:51:11;;;;;;;11.52;6.82;;;;;;;9.24;100.00;99894.66;4992594;28;20165;-69
2022/11/14 08:53:37;;;;;;;13.63;6.10;;;;;;;9.28;100.00;99886.56;4992889;28;20026;-70
2022/11/14 08:56:03;;;;;;;12.35;6.75;;;;;;;9.29;100.00;99887.44;4994492;28;20113;-70
2022/11/14 08:58:29;;;;;;;14.15;6.38;;;;;;;9.36;100.00;99891.63;4992240;28;20060;-70
2022/11/14 09:00:59;;;;;;;10.23;5.75;;;;;;;9.27;100.00;99868.03;4993642;28;20462;-70
2022/11/14 09:03:25;;;;;;;11.55;5.60;;;;;;;9.32;100.00;99885.53;4993400;28;20081;-70
2022/11/14 09:05:52;;;;;;;10.40;5.32;;;;;;;9.32;100.00;99884.69;4993372;28;20038;-70
2022/11/14 09:08:17;;;;;;;13.45;5.47;;;;;;;9.33;100.00;99892.59;4993370;28;20036;-70
2022/11/14 09:10:42;;;;;;;14.38;5.80;;;;;;;9.30;100.00;99899.78;4992881;28;20050;-70
2022/11/14 09:13:08;;;;;;;8.85;5.30;;;;;;;9.30;100.00;99894.47;4992604;28;20149;-70
2022/11/14 09:15:33;;;;;;;11.02;6.03;;;;;;;9.31;100.00;99891.78;4992570;28;20454;-70
2022/11/14 09:17:59;;;;;;;12.15;5.32;;;;;;;9.28;100.00;99891.00;4992670;28;20101;-71
2022/11/14 09:20:25;;;;;;;12.10;6.50;;;;;;;9.41;100.00;99891.53;4995345;28;20023;-71
2022/11/14 09:22:52;;;;;;;10.07;5.63;;;;;;;9.48;100.00;99904.53;4991660;28;20030;-70
2022/11/14 09:25:19;;;;;;;11.85;6.30;;;;;;;9.48;100.00;99893.03;4993822;28;20034;-70
2022/11/14 09:27:44;;;;;;;9.38;5.65;;;;;;;9.53;100.00;99897.31;4994224;28;20038;-70
2022/11/14 09:30:10;;;;;;;11.52;5.25;;;;;;;9.54;100.00;99892.88;4993255;28;20022;-71
2022/11/14 09:32:36;;;;;;;12.98;5.88;;;;;;;9.62;100.00;99885.56;4993488;28;20030;-69
2022/11/14 09:35:01;;;;;;;12.48;6.32;;;;;;;9.66;100.00;99893.38;4993894;28;20080;-70
2022/11/14 09:37:27;;;;;;;9.35;5.35;;;;;;;9.59;100.00;99891.81;4991530;28;20030;-70
2022/11/14 09:39:52;;;;;;;12.40;6.57;;;;;;;9.52;99.35;99894.72;4992911;28;20490;-71
2022/11/14 09:43:06;;;;;;;11.88;6.15;;;;;;;9.56;100.00;99891.91;4993212;28;20105;-71
2022/11/14 09:45:34;;;;;;;15.60;6.95;;;;;;;9.56;100.00;99894.56;4943659;29;20038;-71
2022/11/14 09:48:12;;;;;;;13.13;6.97;;;;;;;9.53;100.00;99876.06;4952359;29;20030;-71
2022/11/14 09:50:46;;;;;;;17.90;6.13;;;;;;;9.60;100.00;99893.56;4959238;28;20042;-71
2022/11/14 09:53:28;;;;;;;16.30;6.80;;;;;;;9.54;100.00;99880.47;4993153;28;20057;-68
2022/11/14 09:55:54;;;;;;;14.35;6.05;;;;;;;9.53;99.87;99881.38;4993014;28;20030;-68
2022/11/14 09:58:20;;;;;;;10.13;5.18;;;;;;;9.55;100.00;99884.88;4993285;28;20030;-68
2022/11/14 10:00:53;;;;;;;13.15;6.20;;;;;;;9.64;100.00;99878.41;4997391;28;20112;-68
2022/11/14 10:03:19;;;;;;;15.48;7.75;;;;;;;9.68;100.00;99882.69;4992443;28;20028;-68
2022/11/14 10:06:01;;;;;;;15.10;7.00;;;;;;;9.71;100.00;99885.25;4991863;28;20030;-68
2022/11/14 10:08:56;;;;;;;11.30;6.60;;;;;;;9.75;99.99;99874.47;4992840;28;20023;-68
2022/11/14 10:11:32;;;;;;;13.65;7.72;;;;;;;9.79;99.96;99877.91;4989054;28;20516;-68
2022/11/14 10:14:26;;;;;;;14.23;7.03;;;;;;;9.74;100.00;99886.03;4988660;28;20053;-68
2022/11/14 10:17:39;;;;;;;14.90;8.00;;;;;;;9.67;100.00;99873.00;4993068;28;20053;-69
2022/11/14 10:20:22;;;;;;;14.95;8.00;;;;;;;9.61;100.00;99871.41;4990925;28;20725;-69
2022/11/14 10:22:57;;;;;;;14.32;7.82;;;;;;;9.70;100.00;99879.09;4992449;28;20114;-68
2022/11/14 10:25:33;;;;;;;13.00;7.15;;;;;;;9.68;100.00;99890.66;4989928;28;20026;-69
2022/11/14 10:28:44;;;;;;;14.63;8.38;;;;;;;9.68;100.00;99878.25;5007524;28;20033;-69
2022/11/14 10:31:25;;;;;;;14.25;7.68;;;;;;;9.70;100.00;99883.53;4977915;28;20038;-70
2022/11/14 10:34:19;;;;;;;15.50;8.52;;;;;;;9.68;100.00;99874.72;4992296;28;20397;-69
2022/11/14 10:37:19;;;;;;;15.15;8.50;;;;;;;9.73;100.00;99873.69;4990873;28;20025;-70
2022/11/14 10:39:59;;;;;;;18.50;8.35;;;;;;;9.68;100.00;99859.66;4992730;28;20390;-70
2022/11/14 10:42:35;;;;;;;14.32;8.02;;;;;;;9.87;100.00;99881.19;4991449;28;20389;-70
2022/11/14 10:45:20;;;;;;;13.23;8.05;;;;;;;9.68;100.00;99880.91;4992238;28;20018;-69
2022/11/14 10:47:51;;;;;;;13.23;7.75;;;;;;;9.69;100.00;99866.72;4991528;28;20037;-69
2022/11/14 10:50:32;;;;;;;14.38;7.55;;;;;;;9.73;100.00;99867.47;4991207;28;20026;-70
2022/11/14 10:53:03;;;;;;;22.05;11.90;;;;;;;9.75;100.00;99876.28;4989468;28;20160;-68
2022/11/14 10:55:29;;;;;;;15.30;8.75;;;;;;;9.83;100.00;99869.81;4991674;28;20025;-69
2022/11/14 10:57:54;;;;;;;14.60;8.85;;;;;;;9.92;100.00;99871.28;4991700;28;20378;-69
2022/11/14 11:00:24;;;;;;;16.27;8.52;;;;;;;10.05;100.00;99865.53;4990661;28;20034;-69
2022/11/14 11:02:53;;;;;;;15.80;8.15;;;;;;;10.11;100.00;99865.38;4991279;28;20113;-69
2022/11/14 11:05:22;;;;;;;13.68;8.13;;;;;;;10.06;100.00;99861.09;4988895;28;20747;-69
2022/11/14 11:13:34;;;;;;;13.35;7.72;;;;;;;10.08;98.63;99851.31;4989765;28;20072;-69
2022/11/14 11:16:02;;;;;;;14.70;7.75;;;;;;;10.14;99.07;99864.41;4990537;28;20042;-69
2022/11/14 11:18:33;;;;;;;13.15;7.47;;;;;;;10.20;98.50;99859.75;4989823;28;20034;-68
2022/11/14 11:21:05;;;;;;;14.15;7.00;;;;;;;10.20;97.92;99853.53;4990307;28;20026;-69
2022/11/14 11:23:30;;;;;;;15.07;7.47;;;;;;;10.13;97.35;99842.25;4990243;28;20378;-69
2022/11/14 11:26:14;;;;;;;13.98;7.22;;;;;;;10.31;97.75;99852.25;4987429;28;20033;-69
2022/11/14 11:28:39;;;;;;;;;;;;;;;10.39;98.08;99847.53;4991361;28;20022;-70
2022/11/14 11:31:09;;;;;;;15.88;7.97;;;;;;;10.46;98.27;99848.22;4989215;28;20300;-69
2022/11/14 11:33:37;;;;;;;16.55;7.68;;;;;;;10.55;98.05;99848.78;4984920;28;20037;-69